Time;durP1;ratioP1;P1;durP2;ratioP2;P2;SDS_P1;SDS_P2;PMS_P1;PMS_P2;Temp;Humidity;BMP_temperature;BMP_pressure;BME280_temperature;BME280_humidity;BME280_pressure;Samples;Min_cycle;Max_cycle;Signal;HPM_P1;HPM_P2
2024/02/19 00:02:16;;;;;;;17.70;12.80;;;;;;;3.13;73.76;101989.92;108864;1257;58720;-63
2024/02/19 00:04:42;;;;;;;20.40;12.10;;;;;;;3.15;73.63;101982.48;108733;1257;138602;-63
2024/02/19 00:07:09;;;;;;;17.80;12.60;;;;;;;3.18;73.63;101979.25;108855;1257;65953;-63
2024/02/19 00:09:36;;;;;;;17.10;12.60;;;;;;;3.21;73.54;101983.59;105724;1257;73874;-63
2024/02/19 00:12:03;;;;;;;16.30;12.40;;;;;;;3.24;73.57;101983.15;104610;1258;138285;-62
2024/02/19 00:14:29;;;;;;;15.10;12.30;;;;;;;3.26;73.53;101978.10;104743;1258;60456;-62
2024/02/19 00:16:56;;;;;;;18.90;13.00;;;;;;;3.29;73.54;101971.92;104625;1257;137775;-62
2024/02/19 00:19:23;;;;;;;16.90;13.00;;;;;;;3.31;73.55;101964.77;104692;1260;66418;-63
2024/02/19 00:21:49;;;;;;;17.70;13.50;;;;;;;3.32;73.52;101962.71;104640;1258;73155;-62
2024/02/19 00:24:16;;;;;;;19.50;13.60;;;;;;;3.30;73.52;101954.98;104484;1257;137639;-63
2024/02/19 00:26:43;;;;;;;20.10;13.80;;;;;;;3.30;73.58;101949.41;104621;1258;60461;-63
2024/02/19 00:29:10;;;;;;;18.10;13.60;;;;;;;3.29;73.44;101946.91;104551;1261;138246;-63
2024/02/19 00:31:37;;;;;;;17.40;13.30;;;;;;;3.28;73.49;101944.21;104761;1261;66770;-64
2024/02/19 00:34:06;;;;;;;19.80;14.40;;;;;;;3.26;73.36;101940.79;104720;1261;71893;-62
2024/02/19 00:36:33;;;;;;;21.10;14.30;;;;;;;3.22;73.43;101932.51;104696;1260;137761;-62
2024/02/19 00:38:59;;;;;;;24.30;14.80;;;;;;;3.20;73.39;101932.16;104709;1257;60583;-62
2024/02/19 00:41:27;;;;;;;19.50;14.40;;;;;;;3.18;73.49;101921.45;104538;1258;138364;-63
2024/02/19 00:43:55;;;;;;;18.00;14.10;;;;;;;3.17;73.45;101922.07;104841;1261;67903;-63
2024/02/19 00:46:21;;;;;;;20.10;14.60;;;;;;;3.17;73.52;101916.34;104699;1261;72136;-63
2024/02/19 00:48:48;;;;;;;19.60;14.90;;;;;;;3.16;73.39;101915.97;104497;1257;138216;-63
2024/02/19 00:51:15;;;;;;;19.70;14.00;;;;;;;3.17;73.52;101909.56;104784;1257;60685;-63
2024/02/19 00:53:41;;;;;;;19.30;14.50;;;;;;;3.14;73.45;101899.98;104500;1257;137434;-63
2024/02/19 00:56:08;;;;;;;20.80;15.10;;;;;;;3.14;73.42;101897.02;104816;1261;66590;-63
2024/02/19 00:58:35;;;;;;;21.30;14.90;;;;;;;3.11;73.40;101892.69;104523;1258;138318;-63
2024/02/19 01:01:02;;;;;;;22.50;15.50;;;;;;;3.10;73.51;101885.86;104668;1258;60524;-63
2024/02/19 01:03:28;;;;;;;21.10;14.90;;;;;;;3.09;73.51;101881.61;104826;1261;60465;-63
2024/02/19 01:05:55;;;;;;;18.80;14.60;;;;;;;3.07;73.52;101873.52;104629;1257;138150;-63
2024/02/19 01:08:22;;;;;;;18.00;13.50;;;;;;;3.04;73.42;101866.34;104611;1260;67426;-62
2024/02/19 01:10:49;;;;;;;21.80;14.60;;;;;;;3.01;73.44;101857.74;104535;1258;137901;-62
2024/02/19 01:13:16;;;;;;;21.00;14.30;;;;;;;2.98;73.54;101850.77;108830;1257;58551;-63
2024/02/19 01:15:43;;;;;;;24.80;15.80;;;;;;;2.97;73.57;101846.76;108867;1257;60356;-62
2024/02/19 01:18:09;;;;;;;19.80;14.50;;;;;;;2.97;73.53;101836.83;108741;1257;138577;-62
2024/02/19 01:20:36;;;;;;;19.10;13.80;;;;;;;2.96;73.51;101831.79;105711;1258;66182;-62
2024/02/19 01:23:03;;;;;;;19.80;13.60;;;;;;;2.97;73.55;101833.06;104562;1258;138755;-62
2024/02/19 01:25:29;;;;;;;21.50;14.00;;;;;;;2.98;73.53;101832.41;104709;1261;60557;-62
2024/02/19 01:27:56;;;;;;;18.10;13.00;;;;;;;2.99;73.45;101830.04;104669;1258;60921;-61
2024/02/19 01:30:24;;;;;;;17.10;12.90;;;;;;;2.99;73.47;101824.52;104474;1257;138434;-62
2024/02/19 01:32:51;;;;;;;19.30;13.10;;;;;;;3.00;73.46;101825.24;108833;1257;67087;-61
2024/02/19 01:35:18;;;;;;;18.20;14.20;;;;;;;3.01;73.45;101816.38;108694;1257;137579;-63
2024/02/19 01:37:45;;;;;;;18.90;14.00;;;;;;;3.04;73.56;101807.88;106324;1258;61016;-62
2024/02/19 01:40:12;;;;;;;20.00;13.60;;;;;;;3.05;73.36;101802.89;104629;1257;61132;-62
2024/02/19 01:42:39;;;;;;;20.40;14.00;;;;;;;3.04;73.53;101796.77;108699;1257;138311;-62
2024/02/19 01:45:33;;;;;;;19.30;14.30;;;;;;;3.04;73.46;101794.73;108884;1257;65305;-62
2024/02/19 01:48:00;;;;;;;22.80;15.10;;;;;;;3.06;73.42;101789.82;108669;1257;138138;-63
2024/02/19 01:50:34;;;;;;;21.40;14.90;;;;;;;3.05;73.29;101789.08;108792;1257;58375;-62
2024/02/19 01:53:03;;;;;;;18.50;14.70;;;;;;;3.03;73.38;101787.93;108752;1257;138298;-62
2024/02/19 01:55:30;;;;;;;22.40;14.20;;;;;;;3.02;73.37;101776.52;108883;1257;74034;-62
2024/02/19 01:57:57;;;;;;;18.90;14.70;;;;;;;3.02;73.35;101765.59;108883;1257;66941;-62
2024/02/19 02:00:23;;;;;;;19.80;14.50;;;;;;;3.02;73.34;101759.34;108628;1260;138732;-61
2024/02/19 02:02:50;;;;;;;19.10;13.60;;;;;;;3.03;73.38;101752.30;108867;1257;58056;-62
2024/02/19 02:05:17;;;;;;;20.20;14.10;;;;;;;3.03;73.52;101749.39;108761;1257;138655;-62
2024/02/19 02:07:44;;;;;;;18.50;14.50;;;;;;;3.05;73.51;101753.67;108818;1257;74537;-62
2024/02/19 02:10:10;;;;;;;21.70;15.50;;;;;;;3.08;73.62;101758.04;108853;1257;67276;-62
2024/02/19 02:12:37;;;;;;;23.30;15.40;;;;;;;3.10;73.47;101754.89;108747;1257;137933;-63
2024/02/19 02:15:04;;;;;;;21.30;14.60;;;;;;;3.09;73.44;101745.66;108786;1257;59915;-62
2024/02/19 02:17:31;;;;;;;21.70;16.00;;;;;;;3.09;73.41;101735.73;108699;1258;137741;-62
2024/02/19 02:19:58;;;;;;;26.10;15.50;;;;;;;3.07;73.47;101731.46;108836;1257;73912;-62
2024/02/19 02:22:24;;;;;;;22.20;15.30;;;;;;;3.05;73.49;101731.48;108810;1257;65164;-63
2024/02/19 02:24:51;;;;;;;23.90;16.00;;;;;;;3.07;73.49;101730.08;108721;1257;137957;-63
2024/02/19 02:27:18;;;;;;;19.60;15.10;;;;;;;3.08;73.49;101728.42;108778;1258;59226;-63
2024/02/19 02:29:45;;;;;;;20.60;14.50;;;;;;;3.08;73.57;101719.77;108727;1257;138137;-63
2024/02/19 02:32:11;;;;;;;24.50;16.00;;;;;;;3.09;73.52;101706.10;108902;1257;74120;-63
2024/02/19 02:34:38;;;;;;;22.80;14.50;;;;;;;3.10;73.47;101696.45;108737;1257;138370;-64
2024/02/19 02:37:05;;;;;;;22.30;14.10;;;;;;;3.10;73.42;101693.86;108822;1257;70621;-63
2024/02/19 02:39:31;;;;;;;22.70;14.80;;;;;;;3.11;73.47;101689.93;105722;1257;60507;-62
2024/02/19 02:41:58;;;;;;;21.00;14.40;;;;;;;3.12;73.47;101689.69;104604;1257;137928;-63
2024/02/19 02:44:25;;;;;;;23.10;14.50;;;;;;;3.13;73.40;101688.38;104738;1257;74500;-63
2024/02/19 02:46:52;;;;;;;19.60;14.00;;;;;;;3.13;73.45;101679.66;104689;1261;138695;-64
2024/02/19 02:49:18;;;;;;;22.60;14.60;;;;;;;3.13;73.51;101673.74;104702;1257;72664;-63
2024/02/19 02:51:45;;;;;;;21.70;14.20;;;;;;;3.13;73.51;101671.50;104687;1257;60471;-63
2024/02/19 02:54:13;;;;;;;22.40;14.40;;;;;;;3.12;73.44;101666.43;104572;1261;137998;-62
2024/02/19 02:56:39;;;;;;;24.30;15.20;;;;;;;3.13;73.54;101667.16;104676;1259;74446;-62
2024/02/19 02:59:06;;;;;;;24.90;14.40;;;;;;;3.12;73.63;101669.21;104455;1261;137627;-62
2024/02/19 03:01:33;;;;;;;20.70;15.50;;;;;;;3.10;73.55;101664.05;104544;1257;73506;-62
2024/02/19 03:03:59;;;;;;;23.30;15.50;;;;;;;3.09;73.71;101660.66;104625;1258;60535;-62
2024/02/19 03:06:26;;;;;;;22.80;16.80;;;;;;;3.08;73.71;101650.19;104589;1257;137597;-62
2024/02/19 03:08:53;;;;;;;25.80;15.90;;;;;;;3.09;73.67;101648.00;104547;1261;73377;-62
2024/02/19 03:11:20;;;;;;;22.80;16.00;;;;;;;3.10;73.85;101654.89;104623;1259;138344;-62
2024/02/19 03:13:47;;;;;;;22.20;15.70;;;;;;;3.13;73.83;101645.52;104594;1258;73128;-63
2024/02/19 03:16:16;;;;;;;22.00;15.60;;;;;;;3.16;73.86;101638.79;104597;1257;60428;-64
2024/02/19 03:18:43;;;;;;;23.90;16.00;;;;;;;3.20;73.87;101633.67;104521;1256;138370;-63
2024/02/19 03:21:15;;;;;;;21.10;14.80;;;;;;;3.23;73.93;101630.95;104690;1258;74803;-63
2024/02/19 03:23:47;;;;;;;22.00;16.30;;;;;;;3.25;73.80;101627.23;108684;1257;137934;-63
2024/02/19 03:26:15;;;;;;;23.50;16.70;;;;;;;3.28;73.77;101626.23;108845;1257;72423;-62
2024/02/19 03:28:42;;;;;;;23.60;16.30;;;;;;;3.31;73.77;101626.27;104997;1261;137793;-62
2024/02/19 03:31:09;;;;;;;24.10;16.20;;;;;;;3.33;73.77;101624.52;108819;1257;61788;-62
2024/02/19 03:33:35;;;;;;;23.90;15.60;;;;;;;3.37;73.84;101629.48;108864;1257;72883;-64
2024/02/19 03:36:02;;;;;;;22.60;15.70;;;;;;;3.39;73.75;101629.73;108781;1255;138104;-62
2024/02/19 03:38:29;;;;;;;21.40;15.60;;;;;;;3.40;73.86;101626.73;108878;1257;70671;-62
2024/02/19 03:40:56;;;;;;;25.40;15.50;;;;;;;3.41;73.75;101619.00;108737;1257;137660;-62
2024/02/19 03:43:22;;;;;;;24.60;16.30;;;;;;;3.42;73.79;101617.84;106940;1257;60404;-63
2024/02/19 03:45:50;;;;;;;22.50;15.30;;;;;;;3.45;73.74;101618.34;104724;1258;74790;-62
2024/02/19 03:48:17;;;;;;;25.90;16.80;;;;;;;3.47;73.70;101619.02;104620;1260;138155;-63
2024/02/19 03:50:44;;;;;;;21.90;15.20;;;;;;;3.51;73.81;101614.27;104718;1257;71678;-63
2024/02/19 03:53:10;;;;;;;19.00;14.50;;;;;;;3.55;73.81;101610.50;104506;1258;138256;-62
2024/02/19 03:55:37;;;;;;;21.30;15.30;;;;;;;3.57;73.70;101606.83;104743;1258;60541;-62
2024/02/19 03:58:03;;;;;;;23.20;16.00;;;;;;;3.60;73.73;101609.65;104642;1258;74394;-62
2024/02/19 04:00:30;;;;;;;24.20;15.80;;;;;;;3.63;73.68;101604.48;104505;1258;137548;-62
2024/02/19 04:02:57;;;;;;;22.20;15.40;;;;;;;3.63;73.76;101596.87;104611;1261;73507;-62
2024/02/19 04:05:24;;;;;;;23.70;15.70;;;;;;;3.65;73.62;101591.41;104405;1258;137866;-62
2024/02/19 04:07:51;;;;;;;25.00;15.80;;;;;;;3.65;73.73;101585.68;104739;1261;60458;-63
2024/02/19 04:10:17;;;;;;;25.30;16.30;;;;;;;3.63;73.63;101577.73;104530;1259;74157;-61
2024/02/19 04:12:44;;;;;;;23.40;16.00;;;;;;;3.59;73.63;101574.70;104452;1258;137109;-63
2024/02/19 04:15:12;;;;;;;24.10;17.00;;;;;;;3.55;73.50;101572.70;104516;1258;71921;-62
2024/02/19 04:17:39;;;;;;;25.50;16.80;;;;;;;3.53;73.67;101569.95;104411;1258;137602;-63
2024/02/19 04:20:06;;;;;;;22.70;16.50;;;;;;;3.50;73.61;101567.83;104644;1260;61252;-63
2024/02/19 04:22:33;;;;;;;22.30;17.40;;;;;;;3.46;73.57;101565.72;104510;1258;139026;-63
2024/02/19 04:25:00;;;;;;;25.10;16.20;;;;;;;3.43;73.56;101561.52;104847;1260;67238;-63
2024/02/19 04:27:27;;;;;;;22.20;16.50;;;;;;;3.42;73.70;101559.21;104651;1260;73682;-63
2024/02/19 04:29:53;;;;;;;24.00;17.50;;;;;;;3.43;73.73;101554.20;104443;1258;138710;-63
2024/02/19 04:32:20;;;;;;;27.10;18.20;;;;;;;3.42;73.69;101546.36;104639;1259;60630;-63
2024/02/19 04:34:46;;;;;;;24.30;17.40;;;;;;;3.43;73.79;101534.58;104399;1257;138133;-62
2024/02/19 04:37:14;;;;;;;25.80;17.20;;;;;;;3.43;73.79;101530.83;104593;1258;65799;-62
2024/02/19 04:39:41;;;;;;;30.00;18.00;;;;;;;3.43;73.78;101523.53;104583;1257;72189;-63
2024/02/19 04:42:08;;;;;;;30.60;20.00;;;;;;;3.42;73.75;101515.31;106300;1259;137860;-62
2024/02/19 04:44:35;;;;;;;25.00;18.90;;;;;;;3.42;73.81;101509.75;104706;1261;60516;-63
2024/02/19 04:47:02;;;;;;;28.40;18.90;;;;;;;3.43;73.84;101506.48;104594;1258;137495;-62
2024/02/19 04:49:28;;;;;;;22.50;17.50;;;;;;;3.41;73.69;101508.48;108818;1257;67183;-63
2024/02/19 04:51:55;;;;;;;26.70;18.20;;;;;;;3.40;73.78;101509.25;108844;1257;73873;-63
2024/02/19 04:54:22;;;;;;;27.00;18.60;;;;;;;3.39;73.75;101503.33;108736;1258;137920;-63
2024/02/19 04:56:48;;;;;;;26.80;18.40;;;;;;;3.38;73.73;101499.20;108860;1257;59225;-64
2024/02/19 04:59:15;;;;;;;23.80;17.30;;;;;;;3.38;73.86;101495.08;108764;1257;138396;-62
2024/02/19 05:01:42;;;;;;;26.50;17.50;;;;;;;3.38;73.71;101492.43;108859;1257;65980;-63
2024/02/19 05:04:09;;;;;;;27.00;17.70;;;;;;;3.34;73.72;101483.16;108827;1256;71471;-63
2024/02/19 05:06:35;;;;;;;26.60;17.90;;;;;;;3.33;73.78;101482.77;108732;1257;139058;-63
2024/02/19 05:09:02;;;;;;;26.30;18.30;;;;;;;3.32;73.69;101483.23;107772;1259;60558;-62
2024/02/19 05:11:30;;;;;;;27.00;18.20;;;;;;;3.32;73.75;101474.21;104643;1258;138341;-66
2024/02/19 05:13:56;;;;;;;25.10;17.70;;;;;;;3.32;73.85;101471.08;104603;1261;65835;-65
2024/02/19 05:16:23;;;;;;;23.80;17.30;;;;;;;3.32;73.84;101470.55;104583;1261;73440;-65
2024/02/19 05:18:50;;;;;;;27.20;18.80;;;;;;;3.33;73.84;101469.59;104626;1258;137635;-66
2024/02/19 05:21:17;;;;;;;28.70;18.40;;;;;;;3.34;73.72;101464.61;104586;1258;60500;-66
2024/02/19 05:23:44;;;;;;;26.20;18.80;;;;;;;3.33;73.85;101468.39;104468;1258;137461;-66
2024/02/19 05:26:11;;;;;;;25.00;19.10;;;;;;;3.32;73.78;101468.51;104673;1258;65107;-65
2024/02/19 05:28:38;;;;;;;27.30;19.30;;;;;;;3.30;73.84;101467.69;104601;1259;138080;-65
2024/02/19 05:31:05;;;;;;;25.90;19.80;;;;;;;3.29;73.81;101461.69;104736;1259;60568;-66
2024/02/19 05:33:32;;;;;;;24.80;19.20;;;;;;;3.28;73.93;101459.21;104663;1261;60458;-66
2024/02/19 05:35:59;;;;;;;27.10;19.80;;;;;;;3.26;73.86;101455.45;104489;1257;138452;-66
2024/02/19 05:38:26;;;;;;;27.20;19.70;;;;;;;3.26;73.99;101458.71;104684;1261;67515;-65
2024/02/19 05:40:52;;;;;;;28.80;19.00;;;;;;;3.27;74.11;101461.24;104507;1258;138632;-66
2024/02/19 05:43:19;;;;;;;28.70;18.70;;;;;;;3.29;74.12;101460.48;104586;1259;60455;-66
2024/02/19 05:45:46;;;;;;;26.20;19.60;;;;;;;3.29;74.12;101458.23;104639;1261;60551;-66
2024/02/19 05:48:13;;;;;;;28.50;19.60;;;;;;;3.27;74.23;101457.77;104495;1259;137780;-65
2024/02/19 05:50:39;;;;;;;28.10;20.70;;;;;;;3.26;74.11;101454.20;104812;1261;67166;-66
2024/02/19 05:53:06;;;;;;;31.40;22.00;;;;;;;3.23;74.34;101451.06;104588;1261;137761;-66
2024/02/19 05:55:33;;;;;;;32.90;22.80;;;;;;;3.23;74.60;101448.60;104759;1260;60667;-65
2024/02/19 05:58:00;;;;;;;27.90;20.60;;;;;;;3.22;74.54;101447.35;104646;1258;60918;-66
2024/02/19 06:00:26;;;;;;;32.20;21.80;;;;;;;3.19;74.60;101445.94;104546;1260;137560;-62
2024/02/19 06:02:53;;;;;;;34.00;24.00;;;;;;;3.18;74.71;101442.79;104864;1261;66027;-62
2024/02/19 06:05:20;;;;;;;31.90;22.40;;;;;;;3.17;74.77;101439.73;104601;1261;137938;-61
2024/02/19 06:07:47;;;;;;;29.80;21.50;;;;;;;3.14;74.80;101436.07;104636;1261;60431;-62
2024/02/19 06:10:13;;;;;;;28.70;21.70;;;;;;;3.11;74.90;101431.37;104612;1262;60469;-63
2024/02/19 06:12:40;;;;;;;30.10;21.70;;;;;;;3.09;74.98;101432.47;104476;1260;138606;-63
2024/02/19 06:15:08;;;;;;;26.60;20.00;;;;;;;3.08;75.15;101426.87;104631;1261;65731;-62
2024/02/19 06:17:34;;;;;;;32.70;20.90;;;;;;;3.11;75.21;101418.88;104641;1261;138104;-63
2024/02/19 06:20:01;;;;;;;30.70;20.10;;;;;;;3.13;75.24;101415.73;104763;1259;60562;-62
2024/02/19 06:22:28;;;;;;;27.60;18.70;;;;;;;3.14;75.21;101415.09;104693;1258;138202;-60
2024/02/19 06:24:55;;;;;;;31.30;20.10;;;;;;;3.14;75.15;101407.11;104783;1259;73749;-60
2024/02/19 06:27:22;;;;;;;31.80;19.30;;;;;;;3.13;75.15;101398.92;104803;1258;67359;-66
2024/02/19 06:29:48;;;;;;;27.80;18.10;;;;;;;3.13;75.20;101393.85;104588;1259;137592;-66
2024/02/19 06:32:15;;;;;;;29.20;19.60;;;;;;;3.14;75.35;101393.25;104780;1256;60563;-65
2024/02/19 06:34:42;;;;;;;25.60;18.60;;;;;;;3.14;75.18;101392.52;104737;1257;137690;-66
2024/02/19 06:37:09;;;;;;;28.70;19.60;;;;;;;3.13;75.28;101391.60;104887;1259;74367;-65
2024/02/19 06:39:37;;;;;;;26.40;18.70;;;;;;;3.14;75.33;101388.54;104863;1257;65884;-65
2024/02/19 06:42:05;;;;;;;29.30;19.80;;;;;;;3.15;75.49;101389.33;104554;1261;137934;-64
2024/02/19 06:44:32;;;;;;;32.50;22.00;;;;;;;3.16;75.47;101388.70;104517;1261;60564;-66
2024/02/19 06:46:59;;;;;;;32.30;21.30;;;;;;;3.18;75.34;101385.51;104443;1258;138634;-66
2024/02/19 06:49:27;;;;;;;32.00;22.20;;;;;;;3.18;75.60;101383.47;108731;1258;74415;-66
2024/02/19 06:51:53;;;;;;;34.60;21.60;;;;;;;3.20;75.48;101382.16;108839;1256;67937;-65
2024/02/19 06:54:20;;;;;;;29.20;20.00;;;;;;;3.25;75.82;101383.52;108776;1256;138468;-65
2024/02/19 06:56:47;;;;;;;30.90;21.80;;;;;;;3.27;75.52;101379.20;108916;1260;58454;-65
2024/02/19 06:59:13;;;;;;;32.30;19.70;;;;;;;3.31;75.40;101377.52;108846;1258;138309;-62
2024/02/19 07:01:40;;;;;;;33.30;21.00;;;;;;;3.34;75.42;101372.70;108943;1256;73753;-65
2024/02/19 07:04:06;;;;;;;32.60;20.50;;;;;;;3.38;75.47;101371.54;108896;1258;64664;-65
2024/02/19 07:06:33;;;;;;;31.40;21.30;;;;;;;3.41;75.41;101369.32;108826;1256;137402;-64
2024/02/19 07:09:00;;;;;;;27.90;19.40;;;;;;;3.45;75.52;101371.30;108961;1258;58333;-61
2024/02/19 07:11:27;;;;;;;28.00;19.70;;;;;;;3.48;75.44;101364.02;108460;1257;138313;-63
2024/02/19 07:13:55;;;;;;;29.30;20.50;;;;;;;3.45;75.23;101357.79;104807;1259;74460;-62
2024/02/19 07:16:22;;;;;;;28.70;20.80;;;;;;;3.46;75.44;101355.94;104871;1259;64823;-63
2024/02/19 07:18:49;;;;;;;26.10;19.00;;;;;;;3.45;75.28;101345.79;106243;1257;137739;-65
2024/02/19 07:21:17;;;;;;;28.00;21.50;;;;;;;3.47;75.49;101344.16;108801;1258;59164;-66
2024/02/19 07:23:44;;;;;;;33.00;22.00;;;;;;;3.47;75.45;101341.05;108672;1258;138587;-65
2024/02/19 07:26:11;;;;;;;32.90;21.20;;;;;;;3.47;75.50;101337.25;108874;1257;71530;-63
2024/02/19 07:28:37;;;;;;;30.80;21.90;;;;;;;3.45;75.50;101337.15;108800;1256;138257;-63
2024/02/19 07:31:04;;;;;;;30.60;21.80;;;;;;;3.45;75.53;101335.74;108911;1257;71060;-62
2024/02/19 07:33:32;;;;;;;28.70;20.50;;;;;;;3.45;75.69;101343.52;108884;1257;58955;-62
2024/02/19 07:35:58;;;;;;;27.30;19.90;;;;;;;3.44;75.61;101337.58;108769;1256;138285;-63
2024/02/19 07:38:25;;;;;;;28.50;20.10;;;;;;;3.45;75.84;101335.51;108929;1256;73035;-65
2024/02/19 07:40:52;;;;;;;26.40;19.20;;;;;;;3.47;75.80;101326.50;108780;1256;138831;-63
2024/02/19 07:43:18;;;;;;;28.00;19.60;;;;;;;3.52;75.87;101323.66;108924;1258;71758;-62
2024/02/19 07:45:45;;;;;;;28.50;20.30;;;;;;;3.53;75.72;101326.48;108888;1257;58496;-62
2024/02/19 07:48:12;;;;;;;28.10;20.40;;;;;;;3.52;75.76;101328.54;108793;1257;137813;-62
2024/02/19 07:50:39;;;;;;;29.00;20.40;;;;;;;3.53;75.84;101325.83;107512;1257;73513;-62
2024/02/19 07:53:06;;;;;;;25.70;19.50;;;;;;;3.54;75.86;101324.14;104587;1261;137549;-65
2024/02/19 07:55:35;;;;;;;32.60;19.60;;;;;;;3.52;75.76;101321.23;104666;1264;73180;-64
2024/02/19 07:58:02;;;;;;;26.90;20.10;;;;;;;3.48;75.90;101320.14;108866;1257;58364;-65
2024/02/19 08:00:29;;;;;;;28.20;19.50;;;;;;;3.48;76.01;101320.14;106648;1261;138328;-66
2024/02/19 08:02:55;;;;;;;30.00;19.90;;;;;;;3.45;76.00;101309.86;104788;1261;71905;-66
2024/02/19 08:05:22;;;;;;;27.40;18.30;;;;;;;3.42;75.94;101308.33;104703;1261;138541;-66
2024/02/19 08:07:49;;;;;;;28.10;19.20;;;;;;;3.43;76.23;101303.69;104824;1259;73552;-66
2024/02/19 08:10:16;;;;;;;31.20;19.40;;;;;;;3.48;76.39;101305.70;104729;1259;60732;-66
2024/02/19 08:12:43;;;;;;;27.60;20.30;;;;;;;3.51;76.36;101305.55;104871;1256;137881;-66
2024/02/19 08:15:10;;;;;;;29.50;21.00;;;;;;;3.52;76.48;101300.06;104744;1261;72842;-65
2024/02/19 08:17:37;;;;;;;30.30;20.60;;;;;;;3.53;76.50;101296.46;104651;1259;137466;-61
2024/02/19 08:20:04;;;;;;;29.70;21.40;;;;;;;3.53;76.60;101287.44;104729;1259;73765;-63
2024/02/19 08:22:31;;;;;;;33.00;22.10;;;;;;;3.50;76.52;101286.26;104624;1259;138079;-61
2024/02/19 08:24:58;;;;;;;28.90;20.20;;;;;;;3.48;76.56;101282.46;104824;1261;60459;-61
2024/02/19 08:27:27;;;;;;;33.90;22.80;;;;;;;3.47;76.59;101283.60;108911;1258;72999;-62
2024/02/19 08:29:54;;;;;;;30.80;21.80;;;;;;;3.49;76.94;101281.17;108801;1258;138481;-62
2024/02/19 08:32:20;;;;;;;27.50;20.40;;;;;;;3.49;76.81;101278.88;108875;1257;71856;-62
2024/02/19 08:34:47;;;;;;;32.10;21.80;;;;;;;3.46;76.74;101277.52;108741;1261;138825;-66
2024/02/19 08:37:17;;;;;;;30.10;21.30;;;;;;;3.46;76.99;101277.86;108915;1257;59904;-63
2024/02/19 08:39:45;;;;;;;34.10;22.70;;;;;;;3.50;76.98;101278.61;108892;1257;73893;-62
2024/02/19 08:42:12;;;;;;;27.60;20.80;;;;;;;3.51;76.98;101278.84;108779;1258;139098;-62
2024/02/19 08:44:39;;;;;;;28.90;20.60;;;;;;;3.52;77.01;101270.55;108909;1256;73763;-62
2024/02/19 08:47:07;;;;;;;31.50;21.90;;;;;;;3.55;77.04;101265.88;108861;1258;138684;-63
2024/02/19 08:49:34;;;;;;;31.70;22.80;;;;;;;3.59;77.19;101265.48;108960;1257;59180;-63
2024/02/19 08:52:01;;;;;;;32.60;23.90;;;;;;;3.62;77.22;101257.11;108854;1259;74462;-63
2024/02/19 08:54:28;;;;;;;40.60;28.00;;;;;;;3.62;77.08;101255.23;105407;1261;137855;-62
2024/02/19 08:56:55;;;;;;;38.20;25.90;;;;;;;3.64;77.23;101254.51;108869;1258;72722;-62
2024/02/19 08:59:22;;;;;;;34.70;24.10;;;;;;;3.67;77.10;101248.27;104972;1261;137298;-63
2024/02/19 09:01:48;;;;;;;34.50;23.80;;;;;;;3.69;77.11;101247.30;104830;1260;61282;-62
2024/02/19 09:04:15;;;;;;;40.70;27.60;;;;;;;3.69;77.19;101241.61;104685;1258;74397;-61
2024/02/19 09:06:42;;;;;;;36.30;25.10;;;;;;;3.69;77.05;101239.68;104636;1261;137398;-61
2024/02/19 09:09:09;;;;;;;36.30;25.30;;;;;;;3.66;77.09;101240.91;104686;1261;73131;-62
2024/02/19 09:11:36;;;;;;;35.00;25.70;;;;;;;3.62;77.09;101234.77;104630;1259;138423;-63
2024/02/19 09:14:04;;;;;;;39.90;27.10;;;;;;;3.60;77.15;101231.83;108946;1256;58720;-63
2024/02/19 09:16:33;;;;;;;38.10;26.10;;;;;;;3.58;77.07;101238.14;108811;1257;138717;-63
2024/02/19 09:19:05;;;;;;;36.40;26.40;;;;;;;3.57;77.26;101232.89;108911;1258;64077;-63
2024/02/19 09:21:32;;;;;;;33.40;24.50;;;;;;;3.58;77.31;101231.73;108851;1258;71715;-63
2024/02/19 09:23:59;;;;;;;34.90;23.40;;;;;;;3.59;77.18;101231.92;108773;1257;138016;-63
2024/02/19 09:26:26;;;;;;;36.00;23.40;;;;;;;3.61;77.27;101226.16;107054;1261;60339;-63
2024/02/19 09:28:52;;;;;;;31.20;21.50;;;;;;;3.61;77.20;101229.27;108592;1257;138430;-63
2024/02/19 09:31:23;;;;;;;32.70;21.50;;;;;;;3.59;77.07;101227.79;108979;1257;66914;-62
2024/02/19 09:33:49;;;;;;;39.20;23.50;;;;;;;3.62;77.24;101221.73;108936;1257;70903;-66
2024/02/19 09:36:17;;;;;;;39.70;25.40;;;;;;;3.67;77.24;101221.14;108815;1257;138571;-63
2024/02/19 09:38:45;;;;;;;40.10;24.80;;;;;;;3.68;77.16;101222.28;108914;1257;58754;-63
2024/02/19 09:41:11;;;;;;;34.70;22.60;;;;;;;3.67;77.20;101218.36;108818;1258;138120;-61
2024/02/19 09:43:39;;;;;;;30.10;21.00;;;;;;;3.66;77.21;101211.02;108936;1256;65493;-62
2024/02/19 09:46:09;;;;;;;34.80;21.80;;;;;;;3.67;77.19;101216.12;108868;1258;71943;-63
2024/02/19 09:48:35;;;;;;;34.80;22.00;;;;;;;3.67;77.14;101215.95;108730;1257;138016;-62
2024/02/19 09:51:03;;;;;;;30.40;21.10;;;;;;;3.66;77.17;101212.97;108849;1257;60346;-62
2024/02/19 09:53:32;;;;;;;30.40;21.50;;;;;;;3.67;77.26;101214.08;108762;1257;139495;-62
2024/02/19 09:55:59;;;;;;;29.70;20.20;;;;;;;3.67;77.11;101209.37;108912;1258;67135;-62
2024/02/19 09:58:26;;;;;;;28.90;20.60;;;;;;;3.66;77.07;101213.81;108826;1263;74035;-62
2024/02/19 10:00:53;;;;;;;33.80;21.50;;;;;;;3.67;77.23;101208.98;108881;1257;58878;-62
2024/02/19 10:03:19;;;;;;;31.80;22.10;;;;;;;3.69;77.31;101208.25;108977;1257;60490;-62
2024/02/19 10:05:46;;;;;;;36.00;21.90;;;;;;;3.69;77.31;101199.94;108758;1258;138911;-62
2024/02/19 10:08:14;;;;;;;33.70;21.30;;;;;;;3.73;77.49;101197.37;108872;1260;67068;-62
2024/02/19 10:10:41;;;;;;;34.20;22.20;;;;;;;3.78;77.43;101198.02;108813;1257;137810;-62
2024/02/19 10:13:10;;;;;;;32.10;21.30;;;;;;;3.79;77.33;101200.71;108831;1256;58605;-62
2024/02/19 10:15:37;;;;;;;31.30;20.90;;;;;;;3.83;77.40;101199.36;108910;1257;59548;-63
2024/02/19 10:18:20;;;;;;;28.70;21.20;;;;;;;3.87;77.48;101196.69;107022;1256;137518;-62
2024/02/19 10:20:48;;;;;;;28.50;20.10;;;;;;;3.90;77.54;101194.20;104987;1256;65824;-62
2024/02/19 10:23:15;;;;;;;26.80;20.50;;;;;;;3.89;77.47;101190.01;107373;1258;138188;-63
2024/02/19 10:25:42;;;;;;;29.80;21.70;;;;;;;3.92;77.60;101187.74;104875;1258;60562;-62
2024/02/19 10:28:09;;;;;;;37.40;25.40;;;;;;;3.99;77.66;101189.34;104847;1261;60180;-61
2024/02/19 10:30:36;;;;;;;51.10;30.40;;;;;;;3.99;77.64;101184.81;108774;1256;138230;-62
2024/02/19 10:33:03;;;;;;;65.20;41.60;;;;;;;3.97;77.68;101186.10;106966;1258;64928;-62
2024/02/19 10:35:31;;;;;;;42.50;27.50;;;;;;;3.95;77.56;101187.07;104681;1260;138605;-62
2024/02/19 10:37:59;;;;;;;34.40;23.20;;;;;;;3.96;77.60;101187.26;104812;1264;60474;-63
2024/02/19 10:40:26;;;;;;;31.80;21.90;;;;;;;3.99;77.88;101184.15;108761;1258;200115;-63
2024/02/19 10:42:53;;;;;;;32.50;23.70;;;;;;;4.07;77.87;101180.11;108938;1258;76056;-66
2024/02/19 10:45:21;;;;;;;32.90;22.40;;;;;;;4.13;78.03;101179.59;107334;1258;65510;-66
2024/02/19 10:47:48;;;;;;;31.40;22.00;;;;;;;4.15;77.75;101174.98;104651;1260;137505;-65
2024/02/19 10:50:17;;;;;;;29.00;20.90;;;;;;;4.18;77.85;101172.55;108857;1262;58251;-65
2024/02/19 10:52:45;;;;;;;27.40;21.40;;;;;;;4.20;77.82;101166.11;108854;1257;138684;-65
2024/02/19 10:55:15;;;;;;;26.90;20.00;;;;;;;4.24;77.84;101161.96;108811;1261;72279;-65
2024/02/19 10:57:52;;;;;;;29.40;21.60;;;;;;;4.26;77.78;101159.66;108831;1260;66901;-65
2024/02/19 11:00:25;;;;;;;29.10;21.60;;;;;;;4.29;77.88;101157.75;108705;1259;138699;-66
2024/02/19 11:03:07;;;;;;;30.40;20.30;;;;;;;4.33;77.82;101155.71;108835;1260;58197;-65
2024/02/19 11:05:38;;;;;;;33.10;21.40;;;;;;;4.37;78.00;101152.66;108741;1259;138358;-65
2024/02/19 11:08:15;;;;;;;29.30;20.70;;;;;;;4.42;77.94;101147.38;108877;1258;74950;-66